createdAt,value
2023-03-22T00:01:19.628Z,5.80
2023-03-22T04:09:18.640Z,8.20
2023-03-22T04:11:54.314Z,11.43
2023-03-22T04:14:22.109Z,8.17
2023-03-22T04:16:51.380Z,10.57
2023-03-22T04:19:21.767Z,7.80
2023-03-22T04:21:49.233Z,10.70
2023-03-22T04:24:16.417Z,8.10
2023-03-22T04:26:46.493Z,10.33
2023-03-22T04:29:39.605Z,14.00
2023-03-22T04:32:26.728Z,17.47
2023-03-22T04:34:55.551Z,14.97
2023-03-22T04:37:24.669Z,9.40
2023-03-22T04:40:08.160Z,13.77
2023-03-22T04:42:57.641Z,14.23
2023-03-22T04:45:47.703Z,10.97
2023-03-22T04:48:22.349Z,9.80
2023-03-22T04:50:53.424Z,10.13
2023-03-22T04:53:27.394Z,13.57
2023-03-22T04:55:59.326Z,12.97
2023-03-22T04:58:29.196Z,11.33
2023-03-22T05:00:56.337Z,12.87
2023-03-22T05:03:24.239Z,12.37
2023-03-22T05:06:02.679Z,11.67
2023-03-22T05:08:40.084Z,10.70
2023-03-22T05:11:10.593Z,12.87
2023-03-22T05:13:37.961Z,12.50
2023-03-22T05:16:06.485Z,12.60
2023-03-22T05:18:45.672Z,10.30
2023-03-22T05:21:15.647Z,14.67
2023-03-22T05:23:45.126Z,11.97
2023-03-22T05:26:16.187Z,15.33
2023-03-22T05:28:44.460Z,13.17
2023-03-22T05:31:28.705Z,12.20
2023-03-22T05:34:02.290Z,13.70
2023-03-22T05:36:31.175Z,12.23
2023-03-22T05:39:10.666Z,14.83
2023-03-22T05:41:38.065Z,14.40
2023-03-22T05:44:05.787Z,13.27
2023-03-22T05:46:35.149Z,13.13
2023-03-22T05:49:21.221Z,12.63
2023-03-22T05:51:51.000Z,13.47
2023-03-22T05:54:19.662Z,13.47
2023-03-22T05:56:50.194Z,16.50
2023-03-22T05:59:17.356Z,13.47
2023-03-22T06:01:44.904Z,12.93
2023-03-22T06:04:18.872Z,15.40
2023-03-22T06:07:05.543Z,8.83
2023-03-22T06:09:53.121Z,10.97
2023-03-22T06:12:27.226Z,9.67
2023-03-22T06:15:15.659Z,13.97
2023-03-22T06:17:56.258Z,10.83
2023-03-22T06:20:27.345Z,11.57
2023-03-22T06:23:00.869Z,9.90
2023-03-22T06:25:27.999Z,10.93
2023-03-22T06:27:57.844Z,16.80
2023-03-22T06:30:25.805Z,12.20
2023-03-22T06:33:13.350Z,13.20
2023-03-22T06:35:44.105Z,12.03
2023-03-22T06:38:14.969Z,14.23
2023-03-22T06:40:43.547Z,14.77
2023-03-22T06:43:10.897Z,10.37
2023-03-22T06:45:41.411Z,12.43
2023-03-22T06:48:09.000Z,11.50
2023-03-22T06:51:02.427Z,12.47
2023-03-22T06:53:33.353Z,14.43
2023-03-22T06:56:00.652Z,15.50
2023-03-22T06:58:28.509Z,13.90
2023-03-22T07:00:57.243Z,13.77
2023-03-22T07:03:25.458Z,16.77
2023-03-22T07:06:07.476Z,16.07
2023-03-22T07:08:37.868Z,14.13
2023-03-22T07:11:06.965Z,14.50
2023-03-22T07:13:34.821Z,11.47
2023-03-22T07:16:07.662Z,10.67
2023-03-22T07:18:38.967Z,14.37
2023-03-22T07:21:06.743Z,12.57
2023-03-22T07:23:36.065Z,15.30
2023-03-22T07:26:10.730Z,10.70
2023-03-22T07:28:41.665Z,18.47
2023-03-22T07:31:12.326Z,14.70
2023-03-22T07:33:57.507Z,10.93
2023-03-22T07:36:27.266Z,14.23
2023-03-22T07:38:55.373Z,9.23
2023-03-22T07:41:30.697Z,13.60
2023-03-22T07:44:18.338Z,14.13
2023-03-22T07:47:02.329Z,14.10
2023-03-22T07:49:40.017Z,8.70
2023-03-22T07:52:09.739Z,11.53
2023-03-22T07:54:38.113Z,8.90
2023-03-22T07:57:08.208Z,11.57
2023-03-22T07:59:40.302Z,15.40
2023-03-22T08:02:11.180Z,9.97
2023-03-22T08:04:44.543Z,13.50
2023-03-22T08:07:18.647Z,13.27
2023-03-22T08:09:46.714Z,11.83
2023-03-22T08:12:13.812Z,11.43
2023-03-22T08:14:41.733Z,10.93
2023-03-22T08:17:17.591Z,11.20
2023-03-22T08:19:45.568Z,10.03
2023-03-22T08:22:16.469Z,13.63
2023-03-22T08:25:03.845Z,10.23
2023-03-22T08:27:34.295Z,8.33
2023-03-22T08:30:02.536Z,9.63
2023-03-22T08:32:31.223Z,7.83
2023-03-22T08:34:58.316Z,8.77
2023-03-22T08:37:25.640Z,11.00
2023-03-22T08:39:52.961Z,12.83
2023-03-22T08:42:23.729Z,12.93
2023-03-22T08:44:52.584Z,9.07
2023-03-22T08:47:21.921Z,10.63
2023-03-22T08:49:52.988Z,7.37
2023-03-22T08:52:25.738Z,8.13
2023-03-22T08:55:05.124Z,7.50
2023-03-22T08:57:51.689Z,8.50
2023-03-22T09:00:48.695Z,5.67
2023-03-22T09:03:43.302Z,9.50
2023-03-22T09:06:11.157Z,8.27
2023-03-22T09:08:41.450Z,5.33
2023-03-22T09:11:16.670Z,11.13
2023-03-22T09:13:45.823Z,11.00
2023-03-22T09:16:13.632Z,10.13
2023-03-22T09:18:41.630Z,10.47
2023-03-22T09:21:16.088Z,5.90
2023-03-22T09:24:04.227Z,7.53
2023-03-22T09:26:42.572Z,8.17
2023-03-22T09:29:10.521Z,6.83
2023-03-22T09:31:39.786Z,6.90
2023-03-22T09:34:16.983Z,6.80
2023-03-22T09:36:49.933Z,7.37
2023-03-22T09:39:20.658Z,5.93
2023-03-22T09:41:55.093Z,5.77
2023-03-22T09:44:33.478Z,6.17
2023-03-22T09:47:06.109Z,6.93
2023-03-22T09:49:53.069Z,9.53
2023-03-22T09:52:21.785Z,5.80
2023-03-22T09:54:51.473Z,7.90
2023-03-22T09:57:36.472Z,4.20
2023-03-22T10:00:18.518Z,3.50
2023-03-22T10:03:35.481Z,4.37
2023-03-22T10:06:28.216Z,4.67
2023-03-22T10:09:43.947Z,6.00
2023-03-22T10:12:29.648Z,3.87
2023-03-22T10:15:11.886Z,7.97
2023-03-22T10:17:42.798Z,4.47
2023-03-22T10:20:34.436Z,7.03
2023-03-22T10:23:05.375Z,4.97
2023-03-22T10:25:41.537Z,6.70
2023-03-22T10:28:21.274Z,7.37
2023-03-22T10:30:54.709Z,3.33
2023-03-22T10:33:40.491Z,4.17
2023-03-22T10:36:13.141Z,4.43
2023-03-22T10:38:53.485Z,7.33
2023-03-22T10:41:23.704Z,5.70
2023-03-22T10:43:55.140Z,4.40
2023-03-22T10:46:26.448Z,2.60
2023-03-22T10:49:00.740Z,3.50
2023-03-22T10:51:49.185Z,4.07
2023-03-22T10:54:19.258Z,3.67
2023-03-22T10:56:46.376Z,3.63
2023-03-22T10:59:42.293Z,3.03
2023-03-22T11:02:30.736Z,3.00
2023-03-22T11:05:04.086Z,3.27
2023-03-22T11:07:35.008Z,5.90
2023-03-22T11:10:24.704Z,5.63
2023-03-22T11:12:55.263Z,5.60
2023-03-22T11:15:31.487Z,5.10
2023-03-22T11:18:05.729Z,3.60
2023-03-22T11:20:34.353Z,6.47
2023-03-22T11:23:03.507Z,29.30
2023-03-22T11:25:34.491Z,4.03
2023-03-22T11:28:17.142Z,7.13
2023-03-22T11:31:02.837Z,10.63
2023-03-22T11:33:30.842Z,6.10
2023-03-22T11:36:00.632Z,5.87
2023-03-22T11:38:44.866Z,13.90
2023-03-22T11:41:25.487Z,4.00
2023-03-22T11:43:56.534Z,7.07
2023-03-22T11:46:24.658Z,4.07
2023-03-22T11:48:58.317Z,4.10
2023-03-22T11:51:36.229Z,4.43
2023-03-22T11:54:29.015Z,3.83
2023-03-22T11:57:01.492Z,5.20
2023-03-22T11:59:45.091Z,2.23
2023-03-22T12:02:45.173Z,2.10
2023-03-22T12:05:40.519Z,4.20
2023-03-22T12:08:42.867Z,1.90
2023-03-22T12:11:19.199Z,2.93
2023-03-22T12:14:01.766Z,2.77
2023-03-22T12:16:36.390Z,4.10
2023-03-22T12:19:40.223Z,4.40
2023-03-22T12:22:31.915Z,2.23
2023-03-22T12:25:00.409Z,2.73
2023-03-22T12:27:42.084Z,1.93
2023-03-22T12:30:16.628Z,2.60
2023-03-22T12:32:58.410Z,3.63
2023-03-22T12:35:30.375Z,2.53
2023-03-22T12:38:01.857Z,2.70
2023-03-22T12:40:34.636Z,3.40
2023-03-22T12:43:35.996Z,3.30
2023-03-22T12:46:06.494Z,2.70
2023-03-22T12:48:46.649Z,1.87
2023-03-22T12:51:15.370Z,2.27
2023-03-22T12:53:46.307Z,3.40
2023-03-22T12:56:17.643Z,3.20
2023-03-22T12:58:51.938Z,2.87
2023-03-22T13:01:30.371Z,3.33
2023-03-22T13:03:59.452Z,2.93
2023-03-22T13:07:30.923Z,5.07
2023-03-22T13:09:59.868Z,2.43
2023-03-22T13:12:31.631Z,3.07
2023-03-22T13:15:42.198Z,2.93
2023-03-22T13:18:31.897Z,5.17
2023-03-22T13:21:24.330Z,2.00
2023-03-22T13:24:23.301Z,2.70
2023-03-22T13:26:55.330Z,2.90
2023-03-22T13:29:42.044Z,4.27
2023-03-22T13:32:30.036Z,1.40
2023-03-22T13:34:57.607Z,5.07
2023-03-22T13:37:36.057Z,2.57
2023-03-22T13:40:14.307Z,1.90
2023-03-22T13:42:42.208Z,2.73
2023-03-22T13:45:33.721Z,3.87
2023-03-22T13:48:33.557Z,2.90
2023-03-22T13:51:35.524Z,3.07
2023-03-22T13:54:24.679Z,2.90
2023-03-22T13:56:57.329Z,3.23
2023-03-22T14:00:03.148Z,2.40
2023-03-22T14:02:42.496Z,3.87
2023-03-22T14:05:18.470Z,2.30
2023-03-22T14:07:56.493Z,1.97
2023-03-22T14:10:31.389Z,8.07
2023-03-22T14:13:47.654Z,2.77
2023-03-22T14:16:41.355Z,2.90
2023-03-22T14:19:14.448Z,2.80
2023-03-22T14:21:46.899Z,2.40
